Olesnica, Poland
Current Conditions -  °F | °C
As of 6:30 PM on Friday 21 Nov 2014 (Local Time) from EPWR Reporting Station
Overcast Overcast  
Wind Chill: 41°   Ceiling: 1100
Heat Index: 41°   Visibility: 4mi
Dew Point: 39°   Wind: 1mph
Humidity: 93%   Direction: NA
Pressure: 30.3"   Gusts: NA
Location:  51.21°N, 17.38°E
Report Text: EPWR 211630Z VRB01KT 7000 FEW007 OVC011 05/04 Q1026
Loading
Personal Weather Stations






























Interactive Weather Map New forecast layout! Learn more

10-Day Weather Forecast

Advertisements
Track Severe Weather on mobile